sensor_id;sensor_type;location;lat;lon;timestamp;P1;durP1;ratioP1;P2;durP2;ratioP2
6438;SDS011;3252;52.540;13.290;2023-12-20T00:01:32;2.38;;;1.90;;
6438;SDS011;3252;52.540;13.290;2023-12-20T00:03:33;3.17;;;2.13;;
6438;SDS011;3252;52.540;13.290;2023-12-20T00:05:36;3.25;;;2.38;;
6438;SDS011;3252;52.540;13.290;2023-12-20T00:07:41;2.78;;;1.80;;
6438;SDS011;3252;52.540;13.290;2023-12-20T00:09:43;2.30;;;1.85;;
6438;SDS011;3252;52.540;13.290;2023-12-20T00:11:46;2.75;;;2.20;;
6438;SDS011;3252;52.540;13.290;2023-12-20T00:13:48;3.20;;;2.40;;
6438;SDS011;3252;52.540;13.290;2023-12-20T00:15:52;3.53;;;1.88;;
6438;SDS011;3252;52.540;13.290;2023-12-20T00:17:55;2.45;;;1.95;;
6438;SDS011;3252;52.540;13.290;2023-12-20T00:19:57;2.35;;;1.77;;
6438;SDS011;3252;52.540;13.290;2023-12-20T00:21:59;2.20;;;2.00;;
6438;SDS011;3252;52.540;13.290;2023-12-20T00:24:02;2.45;;;1.83;;
6438;SDS011;3252;52.540;13.290;2023-12-20T00:26:03;2.88;;;1.73;;
6438;SDS011;3252;52.540;13.290;2023-12-20T00:28:06;2.33;;;1.80;;
6438;SDS011;3252;52.540;13.290;2023-12-20T00:30:09;2.53;;;1.70;;
6438;SDS011;3252;52.540;13.290;2023-12-20T00:32:13;2.33;;;1.80;;
6438;SDS011;3252;52.540;13.290;2023-12-20T00:34:15;2.40;;;1.80;;
6438;SDS011;3252;52.540;13.290;2023-12-20T00:36:17;2.15;;;1.67;;
6438;SDS011;3252;52.540;13.290;2023-12-20T00:38:20;2.65;;;1.77;;
6438;SDS011;3252;52.540;13.290;2023-12-20T00:40:23;2.25;;;1.95;;
6438;SDS011;3252;52.540;13.290;2023-12-20T00:42:26;3.08;;;1.92;;
6438;SDS011;3252;52.540;13.290;2023-12-20T00:44:28;3.42;;;2.28;;
6438;SDS011;3252;52.540;13.290;2023-12-20T00:46:29;2.75;;;2.00;;
6438;SDS011;3252;52.540;13.290;2023-12-20T00:48:33;3.15;;;1.92;;
6438;SDS011;3252;52.540;13.290;2023-12-20T00:50:35;2.78;;;2.00;;
6438;SDS011;3252;52.540;13.290;2023-12-20T00:52:37;2.42;;;1.98;;
6438;SDS011;3252;52.540;13.290;2023-12-20T00:54:39;2.67;;;1.80;;
6438;SDS011;3252;52.540;13.290;2023-12-20T00:56:41;2.50;;;1.70;;
6438;SDS011;3252;52.540;13.290;2023-12-20T00:58:43;3.00;;;1.90;;
6438;SDS011;3252;52.540;13.290;2023-12-20T01:00:45;2.13;;;1.65;;
6438;SDS011;3252;52.540;13.290;2023-12-20T01:02:47;2.45;;;1.73;;
6438;SDS011;3252;52.540;13.290;2023-12-20T01:04:54;2.63;;;1.73;;
6438;SDS011;3252;52.540;13.290;2023-12-20T01:06:56;2.38;;;1.80;;
6438;SDS011;3252;52.540;13.290;2023-12-20T01:08:59;2.15;;;1.70;;
6438;SDS011;3252;52.540;13.290;2023-12-20T01:11:03;2.00;;;1.80;;
6438;SDS011;3252;52.540;13.290;2023-12-20T01:13:06;2.05;;;1.50;;
6438;SDS011;3252;52.540;13.290;2023-12-20T01:15:09;2.72;;;1.88;;
6438;SDS011;3252;52.540;13.290;2023-12-20T01:17:11;2.08;;;1.60;;
6438;SDS011;3252;52.540;13.290;2023-12-20T01:19:14;2.72;;;2.00;;
6438;SDS011;3252;52.540;13.290;2023-12-20T01:21:18;2.67;;;1.80;;
6438;SDS011;3252;52.540;13.290;2023-12-20T01:23:19;2.63;;;1.73;;
6438;SDS011;3252;52.540;13.290;2023-12-20T01:25:22;4.10;;;1.98;;
6438;SDS011;3252;52.540;13.290;2023-12-20T01:27:24;2.05;;;1.58;;
6438;SDS011;3252;52.540;13.290;2023-12-20T01:29:26;2.10;;;1.52;;
6438;SDS011;3252;52.540;13.290;2023-12-20T01:31:29;2.63;;;1.80;;
6438;SDS011;3252;52.540;13.290;2023-12-20T01:33:31;2.45;;;1.60;;
6438;SDS011;3252;52.540;13.290;2023-12-20T01:35:33;2.50;;;1.52;;
6438;SDS011;3252;52.540;13.290;2023-12-20T01:37:37;1.83;;;1.48;;
6438;SDS011;3252;52.540;13.290;2023-12-20T01:39:39;2.42;;;1.63;;
6438;SDS011;3252;52.540;13.290;2023-12-20T01:41:41;2.22;;;1.70;;
6438;SDS011;3252;52.540;13.290;2023-12-20T01:43:43;2.10;;;1.58;;
6438;SDS011;3252;52.540;13.290;2023-12-20T01:45:45;1.95;;;1.60;;
6438;SDS011;3252;52.540;13.290;2023-12-20T01:47:48;2.28;;;1.60;;
6438;SDS011;3252;52.540;13.290;2023-12-20T01:49:50;2.05;;;1.45;;
6438;SDS011;3252;52.540;13.290;2023-12-20T01:51:53;2.10;;;1.65;;
6438;SDS011;3252;52.540;13.290;2023-12-20T01:53:57;2.65;;;1.48;;
6438;SDS011;3252;52.540;13.290;2023-12-20T01:56:00;2.05;;;1.50;;
6438;SDS011;3252;52.540;13.290;2023-12-20T01:58:03;2.03;;;1.75;;
6438;SDS011;3252;52.540;13.290;2023-12-20T02:00:06;2.50;;;1.40;;
6438;SDS011;3252;52.540;13.290;2023-12-20T02:02:09;2.42;;;1.55;;
6438;SDS011;3252;52.540;13.290;2023-12-20T02:04:12;1.73;;;1.38;;
6438;SDS011;3252;52.540;13.290;2023-12-20T02:06:15;1.90;;;1.48;;
6438;SDS011;3252;52.540;13.290;2023-12-20T02:08:18;1.30;;;1.20;;
6438;SDS011;3252;52.540;13.290;2023-12-20T02:10:21;1.65;;;1.38;;
6438;SDS011;3252;52.540;13.290;2023-12-20T02:12:24;1.98;;;1.67;;
6438;SDS011;3252;52.540;13.290;2023-12-20T02:14:25;1.40;;;1.30;;
6438;SDS011;3252;52.540;13.290;2023-12-20T02:16:28;1.67;;;1.45;;
6438;SDS011;3252;52.540;13.290;2023-12-20T02:18:30;1.80;;;1.33;;
6438;SDS011;3252;52.540;13.290;2023-12-20T02:20:33;1.30;;;1.20;;
6438;SDS011;3252;52.540;13.290;2023-12-20T02:22:36;2.55;;;1.30;;
6438;SDS011;3252;52.540;13.290;2023-12-20T02:24:39;1.70;;;1.42;;
6438;SDS011;3252;52.540;13.290;2023-12-20T02:26:41;1.65;;;1.40;;
6438;SDS011;3252;52.540;13.290;2023-12-20T02:28:44;2.10;;;1.38;;
6438;SDS011;3252;52.540;13.290;2023-12-20T02:30:46;2.17;;;1.45;;
6438;SDS011;3252;52.540;13.290;2023-12-20T02:32:49;1.30;;;1.20;;
6438;SDS011;3252;52.540;13.290;2023-12-20T02:34:52;1.42;;;1.30;;
6438;SDS011;3252;52.540;13.290;2023-12-20T02:36:53;2.08;;;1.40;;
6438;SDS011;3252;52.540;13.290;2023-12-20T02:38:57;1.60;;;1.30;;
6438;SDS011;3252;52.540;13.290;2023-12-20T02:40:59;1.90;;;1.50;;
6438;SDS011;3252;52.540;13.290;2023-12-20T02:43:02;1.40;;;1.10;;
6438;SDS011;3252;52.540;13.290;2023-12-20T02:45:04;1.90;;;1.40;;
6438;SDS011;3252;52.540;13.290;2023-12-20T02:47:07;1.67;;;1.40;;
6438;SDS011;3252;52.540;13.290;2023-12-20T02:49:09;2.05;;;1.40;;
6438;SDS011;3252;52.540;13.290;2023-12-20T02:51:12;1.50;;;1.30;;
6438;SDS011;3252;52.540;13.290;2023-12-20T02:53:14;1.77;;;1.40;;
6438;SDS011;3252;52.540;13.290;2023-12-20T02:55:18;1.30;;;1.20;;
6438;SDS011;3252;52.540;13.290;2023-12-20T02:57:20;1.27;;;1.15;;
6438;SDS011;3252;52.540;13.290;2023-12-20T02:59:22;2.10;;;1.48;;
6438;SDS011;3252;52.540;13.290;2023-12-20T03:01:25;1.10;;;1.00;;
6438;SDS011;3252;52.540;13.290;2023-12-20T03:03:27;1.75;;;1.30;;
6438;SDS011;3252;52.540;13.290;2023-12-20T03:05:29;1.88;;;1.25;;
6438;SDS011;3252;52.540;13.290;2023-12-20T03:07:32;1.23;;;1.10;;
6438;SDS011;3252;52.540;13.290;2023-12-20T03:09:34;1.60;;;1.20;;
6438;SDS011;3252;52.540;13.290;2023-12-20T03:11:38;1.42;;;1.13;;
6438;SDS011;3252;52.540;13.290;2023-12-20T03:13:40;1.23;;;1.05;;
6438;SDS011;3252;52.540;13.290;2023-12-20T03:15:42;1.30;;;1.20;;
6438;SDS011;3252;52.540;13.290;2023-12-20T03:17:45;1.33;;;1.10;;
6438;SDS011;3252;52.540;13.290;2023-12-20T03:19:46;1.52;;;1.30;;
6438;SDS011;3252;52.540;13.290;2023-12-20T03:21:48;1.60;;;1.38;;
6438;SDS011;3252;52.540;13.290;2023-12-20T03:23:51;1.52;;;1.20;;
6438;SDS011;3252;52.540;13.290;2023-12-20T03:25:52;1.20;;;1.10;;
6438;SDS011;3252;52.540;13.290;2023-12-20T03:27:56;1.10;;;1.00;;
6438;SDS011;3252;52.540;13.290;2023-12-20T03:29:58;1.40;;;1.10;;
6438;SDS011;3252;52.540;13.290;2023-12-20T03:32:01;1.60;;;1.10;;
6438;SDS011;3252;52.540;13.290;2023-12-20T03:34:03;1.20;;;1.10;;
6438;SDS011;3252;52.540;13.290;2023-12-20T03:36:06;1.42;;;1.20;;
6438;SDS011;3252;52.540;13.290;2023-12-20T03:38:08;1.50;;;1.10;;
6438;SDS011;3252;52.540;13.290;2023-12-20T03:40:10;1.23;;;1.13;;
6438;SDS011;3252;52.540;13.290;2023-12-20T03:42:12;1.40;;;1.05;;
6438;SDS011;3252;52.540;13.290;2023-12-20T03:44:15;1.40;;;1.10;;
6438;SDS011;3252;52.540;13.290;2023-12-20T03:46:17;1.30;;;1.10;;
6438;SDS011;3252;52.540;13.290;2023-12-20T03:48:19;1.65;;;1.20;;
6438;SDS011;3252;52.540;13.290;2023-12-20T03:50:21;1.55;;;1.20;;
6438;SDS011;3252;52.540;13.290;2023-12-20T03:52:24;1.73;;;1.10;;
6438;SDS011;3252;52.540;13.290;2023-12-20T03:54:26;1.17;;;1.00;;
6438;SDS011;3252;52.540;13.290;2023-12-20T03:56:28;1.58;;;1.23;;
6438;SDS011;3252;52.540;13.290;2023-12-20T03:58:31;1.60;;;1.17;;
6438;SDS011;3252;52.540;13.290;2023-12-20T04:00:34;1.40;;;1.00;;
6438;SDS011;3252;52.540;13.290;2023-12-20T04:02:37;1.17;;;0.90;;
6438;SDS011;3252;52.540;13.290;2023-12-20T04:04:40;1.20;;;1.00;;
6438;SDS011;3252;52.540;13.290;2023-12-20T04:06:42;1.37;;;1.00;;
6438;SDS011;3252;52.540;13.290;2023-12-20T04:08:44;1.50;;;1.00;;
6438;SDS011;3252;52.540;13.290;2023-12-20T04:10:47;1.20;;;1.10;;
6438;SDS011;3252;52.540;13.290;2023-12-20T04:12:49;2.08;;;1.25;;
6438;SDS011;3252;52.540;13.290;2023-12-20T04:14:52;1.20;;;0.90;;
6438;SDS011;3252;52.540;13.290;2023-12-20T04:16:55;1.33;;;1.07;;
6438;SDS011;3252;52.540;13.290;2023-12-20T04:18:58;1.00;;;0.90;;
6438;SDS011;3252;52.540;13.290;2023-12-20T04:20:59;1.13;;;0.90;;
6438;SDS011;3252;52.540;13.290;2023-12-20T04:23:01;1.42;;;1.00;;
6438;SDS011;3252;52.540;13.290;2023-12-20T04:25:04;1.15;;;0.90;;
6438;SDS011;3252;52.540;13.290;2023-12-20T04:27:12;1.33;;;1.08;;
6438;SDS011;3252;52.540;13.290;2023-12-20T04:29:15;2.53;;;0.90;;
6438;SDS011;3252;52.540;13.290;2023-12-20T04:31:17;1.20;;;0.85;;
6438;SDS011;3252;52.540;13.290;2023-12-20T04:33:21;1.52;;;1.10;;
6438;SDS011;3252;52.540;13.290;2023-12-20T04:35:23;2.55;;;1.10;;
6438;SDS011;3252;52.540;13.290;2023-12-20T04:37:26;1.48;;;1.05;;
6438;SDS011;3252;52.540;13.290;2023-12-20T04:39:28;0.80;;;0.73;;
6438;SDS011;3252;52.540;13.290;2023-12-20T04:41:31;1.05;;;0.80;;
6438;SDS011;3252;52.540;13.290;2023-12-20T04:43:33;1.23;;;1.00;;
6438;SDS011;3252;52.540;13.290;2023-12-20T04:45:35;1.45;;;1.00;;
6438;SDS011;3252;52.540;13.290;2023-12-20T04:47:38;1.08;;;0.95;;
6438;SDS011;3252;52.540;13.290;2023-12-20T04:49:42;1.00;;;0.90;;
6438;SDS011;3252;52.540;13.290;2023-12-20T04:51:44;1.10;;;0.90;;
6438;SDS011;3252;52.540;13.290;2023-12-20T04:53:46;0.68;;;0.52;;
6438;SDS011;3252;52.540;13.290;2023-12-20T04:55:49;0.85;;;0.80;;
6438;SDS011;3252;52.540;13.290;2023-12-20T04:57:51;0.85;;;0.80;;
6438;SDS011;3252;52.540;13.290;2023-12-20T04:59:53;0.95;;;0.85;;
6438;SDS011;3252;52.540;13.290;2023-12-20T05:01:55;1.35;;;0.80;;
6438;SDS011;3252;52.540;13.290;2023-12-20T05:03:57;1.30;;;0.80;;
6438;SDS011;3252;52.540;13.290;2023-12-20T05:06:01;1.67;;;0.90;;
6438;SDS011;3252;52.540;13.290;2023-12-20T05:08:04;1.02;;;0.70;;
6438;SDS011;3252;52.540;13.290;2023-12-20T05:10:07;1.17;;;0.82;;
6438;SDS011;3252;52.540;13.290;2023-12-20T05:12:09;0.82;;;0.75;;
6438;SDS011;3252;52.540;13.290;2023-12-20T05:14:11;1.13;;;0.70;;
6438;SDS011;3252;52.540;13.290;2023-12-20T05:16:13;0.80;;;0.70;;
6438;SDS011;3252;52.540;13.290;2023-12-20T05:18:18;1.60;;;0.80;;
6438;SDS011;3252;52.540;13.290;2023-12-20T05:20:20;1.00;;;0.75;;
6438;SDS011;3252;52.540;13.290;2023-12-20T05:22:24;0.80;;;0.70;;
6438;SDS011;3252;52.540;13.290;2023-12-20T05:24:27;0.80;;;0.60;;
6438;SDS011;3252;52.540;13.290;2023-12-20T05:26:30;0.90;;;0.70;;
6438;SDS011;3252;52.540;13.290;2023-12-20T05:28:32;1.38;;;0.90;;
6438;SDS011;3252;52.540;13.290;2023-12-20T05:30:35;0.60;;;0.60;;
6438;SDS011;3252;52.540;13.290;2023-12-20T05:32:37;0.73;;;0.68;;
6438;SDS011;3252;52.540;13.290;2023-12-20T05:34:39;0.95;;;0.70;;
6438;SDS011;3252;52.540;13.290;2023-12-20T05:36:42;1.00;;;0.75;;
6438;SDS011;3252;52.540;13.290;2023-12-20T05:38:45;0.70;;;0.60;;
6438;SDS011;3252;52.540;13.290;2023-12-20T05:40:48;1.00;;;0.80;;
6438;SDS011;3252;52.540;13.290;2023-12-20T05:42:50;0.98;;;0.70;;
6438;SDS011;3252;52.540;13.290;2023-12-20T05:44:53;1.67;;;0.85;;
6438;SDS011;3252;52.540;13.290;2023-12-20T05:46:55;1.45;;;0.90;;
6438;SDS011;3252;52.540;13.290;2023-12-20T05:48:56;2.38;;;1.15;;
6438;SDS011;3252;52.540;13.290;2023-12-20T05:50:59;0.75;;;0.70;;
6438;SDS011;3252;52.540;13.290;2023-12-20T05:53:01;2.80;;;1.15;;
6438;SDS011;3252;52.540;13.290;2023-12-20T05:55:05;2.05;;;1.00;;
6438;SDS011;3252;52.540;13.290;2023-12-20T05:57:07;2.72;;;0.95;;
6438;SDS011;3252;52.540;13.290;2023-12-20T05:59:09;4.18;;;0.90;;
6438;SDS011;3252;52.540;13.290;2023-12-20T06:01:11;3.42;;;1.33;;
6438;SDS011;3252;52.540;13.290;2023-12-20T06:03:14;3.85;;;1.50;;
6438;SDS011;3252;52.540;13.290;2023-12-20T06:05:16;2.88;;;1.25;;
6438;SDS011;3252;52.540;13.290;2023-12-20T06:07:19;5.80;;;1.40;;
6438;SDS011;3252;52.540;13.290;2023-12-20T06:09:21;3.08;;;1.20;;
6438;SDS011;3252;52.540;13.290;2023-12-20T06:11:24;3.83;;;1.30;;
6438;SDS011;3252;52.540;13.290;2023-12-20T06:13:27;2.00;;;1.10;;
6438;SDS011;3252;52.540;13.290;2023-12-20T06:15:28;3.90;;;1.13;;
6438;SDS011;3252;52.540;13.290;2023-12-20T06:17:30;2.05;;;1.23;;
6438;SDS011;3252;52.540;13.290;2023-12-20T06:19:32;3.70;;;1.30;;
6438;SDS011;3252;52.540;13.290;2023-12-20T06:21:34;2.53;;;1.30;;
6438;SDS011;3252;52.540;13.290;2023-12-20T06:23:36;2.90;;;1.38;;
6438;SDS011;3252;52.540;13.290;2023-12-20T06:25:39;3.50;;;1.20;;
6438;SDS011;3252;52.540;13.290;2023-12-20T06:27:42;3.92;;;1.42;;
6438;SDS011;3252;52.540;13.290;2023-12-20T06:29:45;5.10;;;1.48;;
6438;SDS011;3252;52.540;13.290;2023-12-20T06:31:47;4.40;;;1.55;;
6438;SDS011;3252;52.540;13.290;2023-12-20T06:33:50;2.95;;;1.35;;
6438;SDS011;3252;52.540;13.290;2023-12-20T06:35:57;2.88;;;1.15;;
6438;SDS011;3252;52.540;13.290;2023-12-20T06:38:00;2.83;;;1.30;;
6438;SDS011;3252;52.540;13.290;2023-12-20T06:40:02;3.10;;;1.30;;
6438;SDS011;3252;52.540;13.290;2023-12-20T06:42:04;4.32;;;1.20;;
6438;SDS011;3252;52.540;13.290;2023-12-20T06:44:08;4.50;;;1.40;;
6438;SDS011;3252;52.540;13.290;2023-12-20T06:46:10;3.83;;;1.67;;
6438;SDS011;3252;52.540;13.290;2023-12-20T06:48:15;4.93;;;1.55;;
6438;SDS011;3252;52.540;13.290;2023-12-20T06:50:17;3.33;;;1.40;;
6438;SDS011;3252;52.540;13.290;2023-12-20T06:52:20;3.53;;;1.42;;
6438;SDS011;3252;52.540;13.290;2023-12-20T06:54:22;4.07;;;1.75;;
6438;SDS011;3252;52.540;13.290;2023-12-20T06:56:24;4.63;;;1.50;;
6438;SDS011;3252;52.540;13.290;2023-12-20T06:58:27;3.13;;;1.38;;
6438;SDS011;3252;52.540;13.290;2023-12-20T07:00:31;3.17;;;1.30;;
6438;SDS011;3252;52.540;13.290;2023-12-20T07:02:34;2.78;;;1.30;;
6438;SDS011;3252;52.540;13.290;2023-12-20T07:04:38;3.85;;;1.38;;
6438;SDS011;3252;52.540;13.290;2023-12-20T07:06:41;3.15;;;1.38;;
6438;SDS011;3252;52.540;13.290;2023-12-20T07:08:44;3.45;;;1.40;;
6438;SDS011;3252;52.540;13.290;2023-12-20T07:10:45;5.13;;;1.83;;
6438;SDS011;3252;52.540;13.290;2023-12-20T07:12:48;3.60;;;1.40;;
6438;SDS011;3252;52.540;13.290;2023-12-20T07:14:51;3.88;;;1.40;;
6438;SDS011;3252;52.540;13.290;2023-12-20T07:16:55;4.45;;;1.48;;
6438;SDS011;3252;52.540;13.290;2023-12-20T07:18:57;3.35;;;1.58;;
6438;SDS011;3252;52.540;13.290;2023-12-20T07:20:59;3.55;;;1.20;;
6438;SDS011;3252;52.540;13.290;2023-12-20T07:23:02;2.40;;;1.40;;
6438;SDS011;3252;52.540;13.290;2023-12-20T07:25:05;4.80;;;1.58;;
6438;SDS011;3252;52.540;13.290;2023-12-20T07:27:07;7.82;;;1.90;;
6438;SDS011;3252;52.540;13.290;2023-12-20T07:29:10;6.82;;;1.83;;
6438;SDS011;3252;52.540;13.290;2023-12-20T07:31:12;4.95;;;1.90;;
6438;SDS011;3252;52.540;13.290;2023-12-20T07:33:16;5.45;;;1.80;;
6438;SDS011;3252;52.540;13.290;2023-12-20T07:35:18;8.38;;;2.22;;
6438;SDS011;3252;52.540;13.290;2023-12-20T07:37:21;7.85;;;2.75;;
6438;SDS011;3252;52.540;13.290;2023-12-20T07:39:24;11.43;;;3.35;;
6438;SDS011;3252;52.540;13.290;2023-12-20T07:41:26;12.45;;;3.42;;
6438;SDS011;3252;52.540;13.290;2023-12-20T07:43:27;8.55;;;2.90;;
6438;SDS011;3252;52.540;13.290;2023-12-20T07:45:30;9.80;;;3.10;;
6438;SDS011;3252;52.540;13.290;2023-12-20T07:47:32;14.50;;;3.38;;
6438;SDS011;3252;52.540;13.290;2023-12-20T07:49:35;7.75;;;2.58;;
6438;SDS011;3252;52.540;13.290;2023-12-20T07:51:37;10.00;;;3.03;;
6438;SDS011;3252;52.540;13.290;2023-12-20T07:53:40;9.20;;;2.90;;
6438;SDS011;3252;52.540;13.290;2023-12-20T07:55:42;10.85;;;3.15;;
6438;SDS011;3252;52.540;13.290;2023-12-20T07:57:44;10.43;;;2.97;;
6438;SDS011;3252;52.540;13.290;2023-12-20T07:59:47;10.23;;;3.25;;
6438;SDS011;3252;52.540;13.290;2023-12-20T08:01:49;8.13;;;3.08;;
6438;SDS011;3252;52.540;13.290;2023-12-20T08:03:52;10.77;;;3.05;;
6438;SDS011;3252;52.540;13.290;2023-12-20T08:05:55;10.20;;;3.10;;
6438;SDS011;3252;52.540;13.290;2023-12-20T08:07:59;9.00;;;2.80;;
6438;SDS011;3252;52.540;13.290;2023-12-20T08:10:02;8.73;;;3.10;;
6438;SDS011;3252;52.540;13.290;2023-12-20T08:12:05;7.35;;;2.60;;
6438;SDS011;3252;52.540;13.290;2023-12-20T08:14:07;8.52;;;3.25;;
6438;SDS011;3252;52.540;13.290;2023-12-20T08:16:10;11.20;;;2.58;;
6438;SDS011;3252;52.540;13.290;2023-12-20T08:18:13;7.93;;;3.13;;
6438;SDS011;3252;52.540;13.290;2023-12-20T08:20:15;7.68;;;2.85;;
6438;SDS011;3252;52.540;13.290;2023-12-20T08:22:19;9.93;;;2.97;;
6438;SDS011;3252;52.540;13.290;2023-12-20T08:24:22;10.23;;;3.15;;
6438;SDS011;3252;52.540;13.290;2023-12-20T08:26:24;7.80;;;2.95;;
6438;SDS011;3252;52.540;13.290;2023-12-20T08:28:26;8.57;;;2.80;;
6438;SDS011;3252;52.540;13.290;2023-12-20T08:30:29;8.52;;;2.72;;
6438;SDS011;3252;52.540;13.290;2023-12-20T08:32:31;8.32;;;2.75;;
6438;SDS011;3252;52.540;13.290;2023-12-20T08:34:33;11.63;;;3.00;;
6438;SDS011;3252;52.540;13.290;2023-12-20T08:36:36;7.90;;;2.50;;
6438;SDS011;3252;52.540;13.290;2023-12-20T08:38:39;7.30;;;2.88;;
6438;SDS011;3252;52.540;13.290;2023-12-20T08:40:42;8.48;;;2.53;;
6438;SDS011;3252;52.540;13.290;2023-12-20T08:42:44;10.30;;;3.25;;
6438;SDS011;3252;52.540;13.290;2023-12-20T08:44:47;11.13;;;2.70;;
6438;SDS011;3252;52.540;13.290;2023-12-20T08:46:49;12.80;;;3.10;;
6438;SDS011;3252;52.540;13.290;2023-12-20T08:48:51;12.88;;;3.35;;
6438;SDS011;3252;52.540;13.290;2023-12-20T08:50:53;10.00;;;3.03;;
6438;SDS011;3252;52.540;13.290;2023-12-20T08:52:55;8.00;;;2.75;;
6438;SDS011;3252;52.540;13.290;2023-12-20T08:54:59;13.75;;;3.35;;
6438;SDS011;3252;52.540;13.290;2023-12-20T08:57:06;16.98;;;3.10;;
6438;SDS011;3252;52.540;13.290;2023-12-20T08:59:08;12.15;;;2.90;;
6438;SDS011;3252;52.540;13.290;2023-12-20T09:01:11;9.88;;;3.33;;
6438;SDS011;3252;52.540;13.290;2023-12-20T09:03:13;21.80;;;4.30;;
6438;SDS011;3252;52.540;13.290;2023-12-20T09:05:15;19.13;;;3.63;;
6438;SDS011;3252;52.540;13.290;2023-12-20T09:07:21;12.15;;;3.75;;
6438;SDS011;3252;52.540;13.290;2023-12-20T09:09:24;18.92;;;3.50;;
6438;SDS011;3252;52.540;13.290;2023-12-20T09:11:28;14.18;;;3.35;;
6438;SDS011;3252;52.540;13.290;2023-12-20T09:13:30;16.50;;;3.20;;
6438;SDS011;3252;52.540;13.290;2023-12-20T09:15:32;13.98;;;3.28;;
6438;SDS011;3252;52.540;13.290;2023-12-20T09:17:34;11.75;;;3.25;;
6438;SDS011;3252;52.540;13.290;2023-12-20T09:19:37;13.18;;;3.50;;
6438;SDS011;3252;52.540;13.290;2023-12-20T09:21:39;17.55;;;3.33;;
6438;SDS011;3252;52.540;13.290;2023-12-20T09:23:41;13.18;;;2.92;;
6438;SDS011;3252;52.540;13.290;2023-12-20T09:25:44;11.23;;;3.67;;
6438;SDS011;3252;52.540;13.290;2023-12-20T09:27:47;12.00;;;3.50;;
6438;SDS011;3252;52.540;13.290;2023-12-20T09:29:50;9.63;;;3.00;;
6438;SDS011;3252;52.540;13.290;2023-12-20T09:31:53;11.75;;;3.10;;
6438;SDS011;3252;52.540;13.290;2023-12-20T09:33:56;11.57;;;3.28;;
6438;SDS011;3252;52.540;13.290;2023-12-20T09:35:58;10.77;;;3.30;;
6438;SDS011;3252;52.540;13.290;2023-12-20T09:38:01;9.48;;;3.10;;
6438;SDS011;3252;52.540;13.290;2023-12-20T09:40:03;10.77;;;3.35;;
6438;SDS011;3252;52.540;13.290;2023-12-20T09:42:06;12.18;;;3.40;;
6438;SDS011;3252;52.540;13.290;2023-12-20T09:44:11;11.68;;;3.35;;
6438;SDS011;3252;52.540;13.290;2023-12-20T09:46:16;12.02;;;3.10;;
6438;SDS011;3252;52.540;13.290;2023-12-20T09:48:20;12.68;;;3.10;;
6438;SDS011;3252;52.540;13.290;2023-12-20T09:50:22;8.25;;;2.80;;
6438;SDS011;3252;52.540;13.290;2023-12-20T09:52:25;11.68;;;3.38;;
6438;SDS011;3252;52.540;13.290;2023-12-20T09:54:28;10.02;;;2.80;;
6438;SDS011;3252;52.540;13.290;2023-12-20T09:56:30;11.45;;;3.10;;
6438;SDS011;3252;52.540;13.290;2023-12-20T09:58:35;12.15;;;3.05;;
6438;SDS011;3252;52.540;13.290;2023-12-20T10:00:39;10.88;;;2.85;;
6438;SDS011;3252;52.540;13.290;2023-12-20T10:02:44;10.55;;;3.10;;
6438;SDS011;3252;52.540;13.290;2023-12-20T10:04:47;9.20;;;2.97;;
6438;SDS011;3252;52.540;13.290;2023-12-20T10:06:49;7.60;;;2.47;;
6438;SDS011;3252;52.540;13.290;2023-12-20T10:08:52;8.50;;;2.58;;
6438;SDS011;3252;52.540;13.290;2023-12-20T10:10:55;7.10;;;2.55;;
6438;SDS011;3252;52.540;13.290;2023-12-20T10:13:03;9.07;;;2.50;;
6438;SDS011;3252;52.540;13.290;2023-12-20T10:15:06;8.73;;;2.60;;
6438;SDS011;3252;52.540;13.290;2023-12-20T10:17:12;9.95;;;3.00;;
6438;SDS011;3252;52.540;13.290;2023-12-20T10:19:16;9.80;;;2.90;;
6438;SDS011;3252;52.540;13.290;2023-12-20T10:21:19;8.27;;;2.88;;
6438;SDS011;3252;52.540;13.290;2023-12-20T10:23:21;11.07;;;2.90;;
6438;SDS011;3252;52.540;13.290;2023-12-20T10:25:24;10.80;;;3.17;;
6438;SDS011;3252;52.540;13.290;2023-12-20T10:27:27;7.43;;;2.70;;
6438;SDS011;3252;52.540;13.290;2023-12-20T10:29:31;6.75;;;2.78;;
6438;SDS011;3252;52.540;13.290;2023-12-20T10:31:34;8.88;;;2.90;;
6438;SDS011;3252;52.540;13.290;2023-12-20T10:33:40;9.07;;;3.10;;
6438;SDS011;3252;52.540;13.290;2023-12-20T10:35:43;7.85;;;3.10;;
6438;SDS011;3252;52.540;13.290;2023-12-20T10:37:45;8.13;;;2.58;;
6438;SDS011;3252;52.540;13.290;2023-12-20T10:39:47;11.50;;;2.95;;
6438;SDS011;3252;52.540;13.290;2023-12-20T10:41:52;8.63;;;2.50;;
6438;SDS011;3252;52.540;13.290;2023-12-20T10:43:56;6.63;;;2.47;;
6438;SDS011;3252;52.540;13.290;2023-12-20T10:45:59;7.50;;;3.00;;
6438;SDS011;3252;52.540;13.290;2023-12-20T10:48:02;9.55;;;3.00;;
6438;SDS011;3252;52.540;13.290;2023-12-20T10:50:08;8.80;;;2.75;;
6438;SDS011;3252;52.540;13.290;2023-12-20T10:52:11;7.22;;;2.50;;
6438;SDS011;3252;52.540;13.290;2023-12-20T10:54:13;6.97;;;2.38;;
6438;SDS011;3252;52.540;13.290;2023-12-20T10:56:16;7.63;;;2.70;;
6438;SDS011;3252;52.540;13.290;2023-12-20T10:58:19;8.02;;;2.75;;
6438;SDS011;3252;52.540;13.290;2023-12-20T11:00:23;5.55;;;2.50;;
6438;SDS011;3252;52.540;13.290;2023-12-20T11:02:25;7.53;;;2.70;;
6438;SDS011;3252;52.540;13.290;2023-12-20T11:04:28;7.78;;;2.63;;
6438;SDS011;3252;52.540;13.290;2023-12-20T11:06:38;8.23;;;3.05;;
6438;SDS011;3252;52.540;13.290;2023-12-20T11:08:44;8.52;;;2.70;;
6438;SDS011;3252;52.540;13.290;2023-12-20T11:10:48;6.13;;;2.58;;
6438;SDS011;3252;52.540;13.290;2023-12-20T11:12:53;7.57;;;2.70;;
6438;SDS011;3252;52.540;13.290;2023-12-20T11:14:57;6.25;;;2.50;;
6438;SDS011;3252;52.540;13.290;2023-12-20T11:17:05;7.30;;;2.65;;
6438;SDS011;3252;52.540;13.290;2023-12-20T11:19:08;5.25;;;2.35;;
6438;SDS011;3252;52.540;13.290;2023-12-20T11:21:13;7.35;;;2.50;;
6438;SDS011;3252;52.540;13.290;2023-12-20T11:23:19;7.20;;;2.55;;
6438;SDS011;3252;52.540;13.290;2023-12-20T11:25:21;6.45;;;2.22;;
6438;SDS011;3252;52.540;13.290;2023-12-20T11:27:24;7.93;;;2.63;;
6438;SDS011;3252;52.540;13.290;2023-12-20T11:29:30;7.50;;;2.53;;
6438;SDS011;3252;52.540;13.290;2023-12-20T11:31:39;7.05;;;2.70;;
6438;SDS011;3252;52.540;13.290;2023-12-20T11:33:42;7.40;;;2.40;;
6438;SDS011;3252;52.540;13.290;2023-12-20T11:35:45;5.85;;;2.20;;
6438;SDS011;3252;52.540;13.290;2023-12-20T11:37:47;7.68;;;2.20;;
6438;SDS011;3252;52.540;13.290;2023-12-20T11:39:54;7.28;;;2.47;;
6438;SDS011;3252;52.540;13.290;2023-12-20T11:41:57;6.15;;;2.38;;
6438;SDS011;3252;52.540;13.290;2023-12-20T11:44:08;8.68;;;2.60;;
6438;SDS011;3252;52.540;13.290;2023-12-20T11:46:11;7.78;;;2.50;;
6438;SDS011;3252;52.540;13.290;2023-12-20T11:48:13;6.90;;;2.30;;
6438;SDS011;3252;52.540;13.290;2023-12-20T11:50:15;4.72;;;2.05;;
6438;SDS011;3252;52.540;13.290;2023-12-20T11:52:17;6.63;;;2.55;;
6438;SDS011;3252;52.540;13.290;2023-12-20T11:54:20;6.63;;;2.53;;
6438;SDS011;3252;52.540;13.290;2023-12-20T11:56:23;6.40;;;2.25;;
6438;SDS011;3252;52.540;13.290;2023-12-20T11:58:26;6.05;;;2.28;;
6438;SDS011;3252;52.540;13.290;2023-12-20T12:00:28;5.63;;;2.30;;
6438;SDS011;3252;52.540;13.290;2023-12-20T12:02:31;6.95;;;2.30;;
6438;SDS011;3252;52.540;13.290;2023-12-20T12:04:34;4.60;;;2.28;;
6438;SDS011;3252;52.540;13.290;2023-12-20T12:06:36;6.10;;;2.38;;
6438;SDS011;3252;52.540;13.290;2023-12-20T12:08:39;6.53;;;2.40;;
6438;SDS011;3252;52.540;13.290;2023-12-20T12:10:41;4.65;;;2.15;;
6438;SDS011;3252;52.540;13.290;2023-12-20T12:12:45;5.03;;;2.13;;
6438;SDS011;3252;52.540;13.290;2023-12-20T12:14:48;6.07;;;2.30;;
6438;SDS011;3252;52.540;13.290;2023-12-20T12:16:51;6.45;;;2.38;;
6438;SDS011;3252;52.540;13.290;2023-12-20T12:18:56;5.97;;;2.45;;
6438;SDS011;3252;52.540;13.290;2023-12-20T12:21:02;4.95;;;2.17;;
6438;SDS011;3252;52.540;13.290;2023-12-20T12:23:05;4.88;;;2.28;;
6438;SDS011;3252;52.540;13.290;2023-12-20T12:25:10;8.00;;;2.33;;
6438;SDS011;3252;52.540;13.290;2023-12-20T12:27:13;6.20;;;2.13;;
6438;SDS011;3252;52.540;13.290;2023-12-20T12:29:17;5.13;;;2.15;;
6438;SDS011;3252;52.540;13.290;2023-12-20T12:31:20;5.00;;;2.30;;